Time;durP1;ratioP1;P1;durP2;ratioP2;P2;SDS_P1;SDS_P2;PMS_P1;PMS_P2;Temp;Humidity;BMP_temperature;BMP_pressure;BME280_temperature;BME280_humidity;BME280_pressure;Samples;Min_cycle;Max_cycle;Signal;HPM_P1;HPM_P2
2022/12/17 13:07:32;;;;;;;7.20;6.50;;;-4.20;99.90;;;;;;5009665;28;20205;-64
2022/12/17 13:09:59;;;;;;;8.57;7.78;;;-4.20;99.90;;;;;;5018913;28;20209;-63
2022/12/17 13:12:33;;;;;;;6.32;5.85;;;-4.00;99.90;;;;;;5022256;28;20220;-62
2022/12/17 13:15:15;;;;;;;7.97;7.28;;;-3.80;99.90;;;;;;5018572;28;20203;-65
2022/12/17 13:17:55;;;;;;;7.50;6.95;;;-3.60;99.90;;;;;;5011710;28;20233;-63
2022/12/17 13:20:26;;;;;;;18.20;8.98;;;-3.70;99.90;;;;;;5018726;28;20197;-63
2022/12/17 13:23:06;;;;;;;8.32;7.63;;;-3.70;99.90;;;;;;5006516;28;20209;-63
2022/12/17 13:25:33;;;;;;;7.75;7.15;;;-3.70;99.90;;;;;;5016329;28;20249;-63
2022/12/17 13:28:00;;;;;;;6.28;5.88;;;-3.70;99.90;;;;;;5018501;28;20235;-64
2022/12/17 13:30:34;;;;;;;8.48;7.68;;;-3.60;99.90;;;;;;5016455;28;20232;-64
2022/12/17 13:33:22;;;;;;;7.57;6.97;;;-3.60;99.90;;;;;;5016578;28;20208;-64
2022/12/17 13:36:00;;;;;;;8.15;7.55;;;-3.60;99.90;;;;;;5014307;28;20228;-64
2022/12/17 13:38:35;;;;;;;6.85;6.25;;;-3.80;99.90;;;;;;5015436;28;20240;-64
2022/12/17 13:41:07;;;;;;;6.13;5.73;;;-3.80;99.90;;;;;;5012702;28;20201;-66
2022/12/17 13:43:42;;;;;;;7.40;6.90;;;-3.80;99.90;;;;;;5010217;28;20205;-64
2022/12/17 13:46:18;;;;;;;7.77;7.10;;;-3.70;99.90;;;;;;5016359;28;20788;-64
2022/12/17 13:48:52;;;;;;;10.35;9.32;;;-3.70;99.90;;;;;;5017789;28;20227;-65
2022/12/17 13:51:21;;;;;;;15.53;9.57;;;-3.80;99.90;;;;;;5018680;28;20292;-63
2022/12/17 13:53:53;;;;;;;7.47;6.83;;;-3.90;99.90;;;;;;5014644;28;20205;-65
2022/12/17 13:56:23;;;;;;;8.52;7.85;;;-3.90;99.90;;;;;;5015353;28;20211;-65
2022/12/17 13:58:53;;;;;;;8.88;8.18;;;-3.80;99.90;;;;;;5016881;28;20225;-64
2022/12/17 14:01:20;;;;;;;8.63;8.00;;;-3.80;99.90;;;;;;5015577;28;20202;-64
2022/12/17 14:03:53;;;;;;;7.70;7.10;;;-3.70;99.90;;;;;;5011438;28;20206;-64
2022/12/17 14:06:21;;;;;;;8.27;7.57;;;-3.70;99.90;;;;;;5016339;28;20281;-64
2022/12/17 14:08:49;;;;;;;7.40;6.90;;;-3.70;99.90;;;;;;5020260;28;20244;-64
2022/12/17 14:14:02;;;;;;;7.17;6.67;;;-3.70;99.90;;;;;;5012220;28;20193;-64
2022/12/17 14:16:29;;;;;;;7.43;6.93;;;-3.80;99.90;;;;;;5018434;28;20209;-67
2022/12/17 14:18:59;;;;;;;7.20;6.60;;;-3.80;99.90;;;;;;5012964;28;20229;-63
2022/12/17 14:21:28;;;;;;;9.30;8.10;;;-3.70;99.90;;;;;;5006296;28;20205;-65
2022/12/17 14:23:56;;;;;;;14.63;8.87;;;-3.60;99.90;;;;;;5006815;28;20202;-64
2022/12/17 14:26:23;;;;;;;8.33;7.73;;;-3.70;99.90;;;;;;5007817;28;20326;-64
2022/12/17 14:28:53;;;;;;;7.70;7.10;;;-3.80;99.90;;;;;;5009597;28;20221;-63
2022/12/17 14:31:23;;;;;;;9.32;8.52;;;-3.80;99.90;;;;;;5005445;28;20198;-65
2022/12/17 14:34:06;;;;;;;8.33;7.73;;;-3.70;99.90;;;;;;5007130;28;20205;-65
2022/12/17 14:36:35;;;;;;;7.22;6.63;;;-3.70;99.90;;;;;;5014011;28;20278;-64
2022/12/17 14:39:09;;;;;;;12.65;8.60;;;-3.70;99.90;;;;;;5007662;28;20606;-64
2022/12/17 14:44:26;;;;;;;7.43;6.93;;;-3.90;99.90;;;;;;5008635;28;20205;-63
2022/12/17 14:47:09;;;;;;;7.88;7.28;;;-3.80;99.90;;;;;;5004720;28;20221;-64
2022/12/17 14:49:53;;;;;;;9.52;8.63;;;-3.90;99.90;;;;;;5005811;28;20229;-62
2022/12/17 14:52:27;;;;;;;7.05;6.65;;;-3.90;99.90;;;;;;5008495;28;20717;-64
2022/12/17 14:54:53;;;;;;;8.00;7.50;;;-4.00;99.90;;;;;;5006717;28;20457;-63
2022/12/17 14:57:22;;;;;;;7.85;7.25;;;-3.90;99.90;;;;;;5011615;28;20682;-62
2022/12/17 14:59:51;;;;;;;8.15;7.55;;;-4.00;99.90;;;;;;5011270;28;20201;-62
2022/12/17 15:02:22;;;;;;;6.75;6.30;;;-3.80;99.90;;;;;;5011222;28;20329;-62
2022/12/17 15:04:52;;;;;;;7.38;6.80;;;-3.80;99.90;;;;;;5008497;28;20216;-63
2022/12/17 15:07:24;;;;;;;5.82;5.43;;;-3.70;99.90;;;;;;5007138;28;20273;-63
2022/12/17 15:09:52;;;;;;;6.60;6.20;;;-3.60;99.90;;;;;;5005364;28;20244;-63
2022/12/17 15:12:20;;;;;;;7.53;7.03;;;-3.50;99.90;;;;;;5008951;28;20212;-63
2022/12/17 15:14:47;;;;;;;8.00;7.40;;;-3.50;99.90;;;;;;5009159;28;20742;-63
2022/12/17 15:17:14;;;;;;;8.57;7.80;;;-3.50;99.90;;;;;;5004252;28;20301;-63
2022/12/17 15:19:42;;;;;;;7.97;7.37;;;-3.60;99.90;;;;;;5008877;28;20209;-63
2022/12/17 15:22:15;;;;;;;8.73;8.10;;;-3.60;99.90;;;;;;5014643;28;20219;-63
2022/12/17 15:24:42;;;;;;;8.80;8.15;;;-3.50;99.90;;;;;;5014153;28;20199;-63
2022/12/17 15:27:12;;;;;;;8.93;8.33;;;-3.50;99.90;;;;;;5010509;28;20231;-63
2022/12/17 15:29:39;;;;;;;7.57;6.97;;;-3.50;99.90;;;;;;5011786;28;20225;-63
2022/12/17 15:32:06;;;;;;;9.00;8.30;;;-3.50;99.90;;;;;;5010218;28;20204;-64
2022/12/17 15:34:33;;;;;;;8.53;7.93;;;-3.50;99.90;;;;;;5010528;28;20212;-62
2022/12/17 15:36:59;;;;;;;8.05;7.40;;;-3.50;99.90;;;;;;5010290;28;20198;-64
2022/12/17 15:39:28;;;;;;;8.03;7.53;;;-3.50;99.90;;;;;;5020927;28;20225;-63
2022/12/17 15:44:39;;;;;;;10.23;9.43;;;-3.30;99.90;;;;;;5017087;28;20255;-64
2022/12/17 15:47:06;;;;;;;10.43;9.52;;;-3.30;99.90;;;;;;5014809;28;20225;-64
2022/12/17 15:49:33;;;;;;;9.63;8.87;;;-3.30;99.90;;;;;;5012195;28;20261;-63
2022/12/17 15:51:59;;;;;;;10.33;9.53;;;-3.30;99.90;;;;;;5009631;28;20262;-64
2022/12/17 15:54:28;;;;;;;9.60;8.90;;;-3.40;99.90;;;;;;5011534;28;20268;-63
2022/12/17 15:56:55;;;;;;;9.40;8.70;;;-3.40;99.90;;;;;;5011595;28;20202;-64
2022/12/17 15:59:22;;;;;;;9.37;8.73;;;-3.40;99.90;;;;;;5012500;28;20223;-63
2022/12/17 16:01:49;;;;;;;8.98;8.38;;;-3.50;99.90;;;;;;5006187;28;20608;-63
2022/12/17 16:04:16;;;;;;;8.77;8.17;;;-3.50;99.90;;;;;;5010507;28;20205;-64
2022/12/17 16:06:43;;;;;;;7.60;7.00;;;-3.50;99.90;;;;;;5007761;28;20863;-63
2022/12/17 16:09:10;;;;;;;7.50;6.90;;;-3.50;99.90;;;;;;5008280;28;20243;-63
2022/12/17 16:11:38;;;;;;;8.17;7.57;;;-3.40;99.90;;;;;;5005862;28;20276;-64
2022/12/17 16:14:05;;;;;;;7.70;7.20;;;-3.30;99.90;;;;;;5002838;28;20232;-65
2022/12/17 16:16:32;;;;;;;8.33;7.73;;;-3.20;99.90;;;;;;5010580;28;20295;-65
2022/12/17 16:19:00;;;;;;;8.20;7.60;;;-3.40;99.90;;;;;;5013583;28;20221;-64
2022/12/17 16:21:28;;;;;;;8.17;7.57;;;-3.30;99.90;;;;;;5009062;28;20202;-63
2022/12/17 16:23:55;;;;;;;8.90;8.23;;;-3.20;99.90;;;;;;5004355;28;20210;-63
2022/12/17 16:26:22;;;;;;;8.93;8.23;;;-3.20;99.90;;;;;;5001738;28;20702;-62
2022/12/17 16:28:50;;;;;;;8.27;7.67;;;-3.10;99.90;;;;;;5008176;28;20705;-64
2022/12/17 16:31:17;;;;;;;7.63;7.13;;;-3.00;99.90;;;;;;5009822;28;20209;-65
2022/12/17 16:33:46;;;;;;;8.60;8.00;;;-3.00;99.90;;;;;;5005734;28;20198;-63
2022/12/17 16:36:15;;;;;;;7.97;7.37;;;-3.00;99.90;;;;;;5000808;28;20341;-63
2022/12/17 16:38:44;;;;;;;7.33;6.83;;;-2.90;99.90;;;;;;5002823;28;20222;-63
2022/12/17 16:41:11;;;;;;;7.87;7.27;;;-2.90;99.90;;;;;;5005276;28;20220;-63
2022/12/17 16:43:37;;;;;;;7.50;7.00;;;-2.90;99.90;;;;;;5005700;28;20238;-63
2022/12/17 16:46:22;;;;;;;7.20;6.70;;;-3.00;99.90;;;;;;5005295;28;20329;-63
2022/12/17 16:48:49;;;;;;;7.60;7.00;;;-3.10;99.90;;;;;;5006595;28;20225;-64
2022/12/17 16:51:17;;;;;;;7.00;6.50;;;-3.20;99.90;;;;;;5010198;28;20205;-63
2022/12/17 16:53:44;;;;;;;7.80;7.30;;;-3.30;99.90;;;;;;5002731;28;20320;-63
2022/12/17 16:56:16;;;;;;;6.87;6.37;;;-3.30;99.90;;;;;;5009449;28;20650;-62
2022/12/17 16:58:43;;;;;;;6.83;6.33;;;-3.20;99.90;;;;;;5002817;28;20230;-61
2022/12/17 17:01:11;;;;;;;7.60;7.10;;;-3.10;99.90;;;;;;5002497;28;20205;-60
2022/12/17 17:03:41;;;;;;;7.70;7.17;;;-3.00;99.90;;;;;;5001983;28;20201;-60
2022/12/17 17:06:09;;;;;;;8.60;7.90;;;-3.00;99.90;;;;;;5002317;28;20225;-60
2022/12/17 17:08:36;;;;;;;8.03;7.43;;;-3.10;99.90;;;;;;5000992;28;20231;-63
2022/12/17 17:11:09;;;;;;;7.97;7.47;;;-3.20;99.90;;;;;;5003158;28;20206;-62
2022/12/17 17:13:36;;;;;;;7.18;6.70;;;-3.10;99.90;;;;;;5006965;28;20576;-63
2022/12/17 17:16:03;;;;;;;7.47;6.93;;;-3.10;99.90;;;;;;4998350;28;20217;-63
2022/12/17 17:18:32;;;;;;;8.87;8.17;;;-3.10;99.90;;;;;;5002539;28;20235;-61
2022/12/17 17:21:16;;;;;;;8.03;7.43;;;-3.00;99.90;;;;;;5000816;28;20209;-64
2022/12/17 17:23:43;;;;;;;8.67;7.97;;;-3.00;99.90;;;;;;5003447;28;20228;-63
2022/12/17 17:26:11;;;;;;;8.90;8.20;;;-3.10;99.90;;;;;;5006171;28;20229;-62
2022/12/17 17:28:38;;;;;;;8.90;8.20;;;-3.10;99.90;;;;;;5008780;28;20288;-62
2022/12/17 17:31:07;;;;;;;11.25;9.05;;;-3.20;99.90;;;;;;5005957;28;20240;-61
2022/12/17 17:33:38;;;;;;;8.67;8.07;;;-3.30;99.90;;;;;;5006771;28;20202;-62
2022/12/17 17:36:06;;;;;;;9.60;8.80;;;-3.40;99.90;;;;;;5013025;28;20205;-62
2022/12/17 17:38:34;;;;;;;8.82;8.02;;;-3.40;99.90;;;;;;5012821;28;20284;-64
2022/12/17 17:41:01;;;;;;;8.83;8.03;;;-3.30;99.90;;;;;;5012537;28;20209;-63
2022/12/17 17:43:28;;;;;;;8.33;7.73;;;-3.30;99.90;;;;;;5012343;28;20696;-64
2022/12/17 17:45:58;;;;;;;8.93;8.33;;;-3.30;99.90;;;;;;5014676;28;20282;-63
2022/12/17 17:48:25;;;;;;;9.43;8.67;;;-3.30;99.90;;;;;;5008060;28;20570;-61
2022/12/17 17:51:01;;;;;;;8.50;7.80;;;-3.30;99.90;;;;;;5001333;28;20208;-63
2022/12/17 17:53:28;;;;;;;8.80;8.10;;;-3.30;99.90;;;;;;5002543;28;20350;-62
2022/12/17 17:55:55;;;;;;;8.47;7.87;;;-3.30;99.90;;;;;;5000661;28;20667;-62
2022/12/17 17:58:22;;;;;;;8.70;7.90;;;-3.30;99.90;;;;;;4998224;28;20226;-62
2022/12/17 18:00:49;;;;;;;7.78;7.18;;;-3.20;99.90;;;;;;4998395;28;20210;-62
2022/12/17 18:03:16;;;;;;;8.73;7.93;;;-3.20;99.90;;;;;;4999202;28;20205;-64
2022/12/17 18:05:43;;;;;;;8.98;8.32;;;-3.20;99.90;;;;;;5000972;28;20295;-62
2022/12/17 18:08:11;;;;;;;8.80;8.10;;;-3.30;99.90;;;;;;5008065;28;20235;-61
2022/12/17 18:10:38;;;;;;;9.10;8.37;;;-3.20;99.90;;;;;;5013135;28;20347;-62
2022/12/17 18:15:49;;;;;;;8.80;8.17;;;-3.40;99.90;;;;;;5007952;28;20582;-62
2022/12/17 18:18:16;;;;;;;7.03;6.53;;;-3.40;99.90;;;;;;5012626;28;20224;-61
2022/12/17 18:20:43;;;;;;;9.18;8.48;;;-3.40;99.90;;;;;;5010584;28;20293;-62
2022/12/17 18:23:11;;;;;;;8.35;7.68;;;-3.40;99.90;;;;;;5012393;28;20205;-62
2022/12/17 18:25:38;;;;;;;8.70;8.00;;;-3.40;99.90;;;;;;5012347;28;20201;-60
2022/12/17 18:28:05;;;;;;;8.77;8.07;;;-3.40;99.90;;;;;;5017573;28;20255;-60
2022/12/17 18:30:32;;;;;;;8.67;8.00;;;-3.40;99.90;;;;;;5013096;28;20228;-62
2022/12/17 18:32:59;;;;;;;9.80;8.93;;;-3.40;99.90;;;;;;5008344;28;20209;-62
2022/12/17 18:35:26;;;;;;;9.13;8.32;;;-3.40;99.90;;;;;;5014213;28;20205;-61
2022/12/17 18:37:53;;;;;;;7.90;7.30;;;-3.30;99.90;;;;;;5012025;28;20304;-62
2022/12/17 18:40:21;;;;;;;7.70;7.10;;;-3.30;99.90;;;;;;5009582;28;20236;-62
2022/12/17 18:45:37;;;;;;;7.80;7.20;;;-3.10;99.90;;;;;;5008834;28;20263;-62
2022/12/17 18:48:04;;;;;;;7.40;6.90;;;-3.30;99.90;;;;;;5011958;28;20243;-62
2022/12/17 18:50:31;;;;;;;7.50;6.90;;;-3.30;99.90;;;;;;5012582;28;20206;-63
2022/12/17 18:52:58;;;;;;;7.50;7.00;;;-3.30;99.90;;;;;;5006340;28;20221;-62
2022/12/17 18:55:26;;;;;;;7.70;7.20;;;-3.40;99.90;;;;;;5005873;28;20206;-60
2022/12/17 18:57:53;;;;;;;8.17;7.67;;;-3.50;99.90;;;;;;5011769;28;20221;-61
2022/12/17 19:00:20;;;;;;;7.20;6.70;;;-3.60;99.90;;;;;;5007316;28;20232;-61
2022/12/17 19:02:47;;;;;;;7.10;6.60;;;-3.80;99.90;;;;;;5006208;28;20296;-61
2022/12/17 19:05:14;;;;;;;7.87;7.20;;;-3.80;99.90;;;;;;5003683;28;20276;-61
2022/12/17 19:07:41;;;;;;;8.33;7.67;;;-3.60;99.90;;;;;;5008801;28;20256;-60
2022/12/17 19:10:08;;;;;;;8.30;7.70;;;-3.60;99.90;;;;;;5008403;28;20666;-61
2022/12/17 19:12:37;;;;;;;8.77;8.17;;;-3.70;99.90;;;;;;5012005;28;20205;-60
2022/12/17 19:15:04;;;;;;;7.77;7.17;;;-3.70;99.90;;;;;;5004811;28;20628;-61
2022/12/17 19:17:31;;;;;;;9.10;8.33;;;-3.90;99.90;;;;;;5003665;28;20214;-58
2022/12/17 19:19:58;;;;;;;8.00;7.40;;;-3.60;99.90;;;;;;5000275;28;20326;-61
2022/12/17 19:22:24;;;;;;;8.87;8.17;;;-3.50;99.90;;;;;;5006900;28;20216;-60
2022/12/17 19:24:51;;;;;;;8.07;7.37;;;-3.40;99.90;;;;;;5001912;28;20205;-60
2022/12/17 19:27:18;;;;;;;7.90;7.30;;;-3.30;99.90;;;;;;5007089;28;20229;-60
2022/12/17 19:29:46;;;;;;;7.80;7.20;;;-3.30;99.90;;;;;;5005222;28;20578;-60
2022/12/17 19:32:13;;;;;;;8.37;7.77;;;-3.50;99.90;;;;;;5003718;28;20658;-62
2022/12/17 19:34:40;;;;;;;8.13;7.53;;;-3.50;99.90;;;;;;5004788;28;20202;-62
2022/12/17 19:37:07;;;;;;;8.15;7.55;;;-3.50;99.90;;;;;;5003095;28;20219;-60
2022/12/17 19:39:34;;;;;;;8.47;7.80;;;-3.50;99.90;;;;;;5019830;28;20728;-61
2022/12/17 19:42:00;;;;;;;8.03;7.43;;;-3.60;99.90;;;;;;5010779;28;20316;-63
2022/12/17 19:44:27;;;;;;;8.23;7.67;;;-3.70;99.90;;;;;;5005684;28;20644;-62
2022/12/17 19:46:57;;;;;;;8.50;7.90;;;-3.70;99.90;;;;;;5005808;28;20252;-62
2022/12/17 19:49:23;;;;;;;8.10;7.50;;;-3.70;99.90;;;;;;5029124;28;20229;-61
2022/12/17 19:51:50;;;;;;;8.23;7.57;;;-3.70;99.90;;;;;;5021240;28;20211;-61
2022/12/17 19:54:17;;;;;;;7.77;7.17;;;-3.70;99.90;;;;;;5012998;28;21003;-61
2022/12/17 19:56:45;;;;;;;6.87;6.37;;;-3.70;99.90;;;;;;5011143;28;20251;-60
2022/12/17 19:59:12;;;;;;;7.97;7.27;;;-3.70;99.90;;;;;;5009798;28;20240;-61
2022/12/17 20:01:41;;;;;;;8.20;7.60;;;-3.70;99.90;;;;;;5008308;28;20213;-61
2022/12/17 20:04:11;;;;;;;7.63;7.10;;;-3.60;99.90;;;;;;5009754;28;20292;-62
2022/12/17 20:06:38;;;;;;;6.97;6.50;;;-3.70;99.90;;;;;;5009202;28;20213;-62
2022/12/17 20:09:06;;;;;;;7.40;6.80;;;-3.70;99.90;;;;;;5009571;28;20616;-60
2022/12/17 20:11:33;;;;;;;7.77;7.17;;;-3.70;99.90;;;;;;5010294;28;20284;-60
2022/12/17 20:14:02;;;;;;;8.10;7.50;;;-3.70;99.90;;;;;;5012453;28;20649;-60
2022/12/17 20:16:32;;;;;;;7.03;6.43;;;-3.70;99.90;;;;;;5010594;28;20223;-62
2022/12/17 20:18:59;;;;;;;6.67;6.17;;;-3.70;99.90;;;;;;5011533;28;20283;-62
2022/12/17 20:21:28;;;;;;;6.93;6.43;;;-3.80;99.90;;;;;;5012129;28;20213;-60
2022/12/17 20:23:55;;;;;;;6.43;6.03;;;-3.70;99.90;;;;;;5009003;28;20197;-60
2022/12/17 20:26:22;;;;;;;7.20;6.70;;;-3.90;99.90;;;;;;5011204;28;20237;-60
2022/12/17 20:28:49;;;;;;;7.67;7.07;;;-3.70;99.90;;;;;;5011500;28;20233;-63
2022/12/17 20:31:16;;;;;;;6.97;6.47;;;-3.60;99.90;;;;;;5007241;28;20875;-63
2022/12/17 20:33:44;;;;;;;6.80;6.33;;;-3.70;99.90;;;;;;5010068;28;20217;-61
2022/12/17 20:36:12;;;;;;;7.27;6.77;;;-3.90;99.90;;;;;;5022497;28;20266;-60
2022/12/17 20:38:42;;;;;;;7.05;6.55;;;-3.90;99.90;;;;;;5021330;28;20340;-61
2022/12/17 20:41:10;;;;;;;7.70;7.10;;;-3.90;99.90;;;;;;5016971;28;20208;-60
2022/12/17 20:43:37;;;;;;;7.57;7.07;;;-3.90;99.90;;;;;;5010585;28;20589;-61
2022/12/17 20:46:04;;;;;;;6.87;6.27;;;-3.90;99.90;;;;;;5010115;28;20209;-60
2022/12/17 20:48:32;;;;;;;7.25;6.68;;;-3.90;99.90;;;;;;5013733;28;20336;-61
2022/12/17 20:50:59;;;;;;;7.53;6.93;;;-3.90;99.90;;;;;;5015247;28;20322;-59
2022/12/17 20:53:26;;;;;;;6.43;6.03;;;-3.90;99.90;;;;;;5009248;28;20205;-60
2022/12/17 20:56:01;;;;;;;6.63;6.13;;;-3.80;99.90;;;;;;5004758;28;20213;-62
2022/12/17 20:58:29;;;;;;;7.00;6.50;;;-3.80;99.90;;;;;;5016110;28;20245;-62
2022/12/17 21:01:03;;;;;;;6.83;6.43;;;-3.80;99.90;;;;;;5014576;28;20252;-62
2022/12/17 21:03:31;;;;;;;7.47;6.97;;;-3.80;99.90;;;;;;5009281;28;20211;-61
2022/12/17 21:06:05;;;;;;;7.00;6.50;;;-3.80;99.90;;;;;;5007764;28;20202;-61
2022/12/17 21:08:32;;;;;;;7.50;6.90;;;-3.70;99.90;;;;;;5007085;28;20247;-60
2022/12/17 21:11:00;;;;;;;7.13;6.55;;;-3.70;99.90;;;;;;5006762;28;20209;-62
2022/12/17 21:13:30;;;;;;;7.65;7.05;;;-3.70;99.90;;;;;;5010143;28;20317;-61
2022/12/17 21:15:58;;;;;;;8.10;7.50;;;-3.70;99.90;;;;;;5002934;28;20261;-61
2022/12/17 21:18:25;;;;;;;7.40;6.83;;;-3.80;99.90;;;;;;5011772;28;20217;-61
2022/12/17 21:20:57;;;;;;;7.57;6.97;;;-3.80;99.90;;;;;;5017516;28;20220;-61
2022/12/17 21:23:24;;;;;;;7.40;6.90;;;-3.70;99.90;;;;;;5006453;28;20233;-59
2022/12/17 21:26:00;;;;;;;7.33;6.73;;;-3.80;99.90;;;;;;5019469;28;20581;-60
2022/12/17 21:28:27;;;;;;;6.63;6.13;;;-3.80;99.90;;;;;;5023515;28;20255;-62
2022/12/17 21:30:54;;;;;;;7.07;6.57;;;-3.90;99.90;;;;;;5029425;28;20291;-61
2022/12/17 21:33:21;;;;;;;6.87;6.33;;;-3.80;99.90;;;;;;5023213;28;20215;-61
2022/12/17 21:35:48;;;;;;;7.37;6.87;;;-3.60;99.90;;;;;;5025751;28;20239;-60
2022/12/17 21:38:16;;;;;;;7.00;6.50;;;-3.60;99.90;;;;;;5032684;28;20238;-61
2022/12/17 21:40:42;;;;;;;7.33;6.83;;;-3.70;99.90;;;;;;5028626;28;20201;-61
2022/12/17 21:43:11;;;;;;;7.67;7.07;;;-3.80;99.90;;;;;;5022731;28;20258;-62
2022/12/17 21:45:39;;;;;;;7.00;6.43;;;-3.90;99.90;;;;;;5014743;28;20201;-61
2022/12/17 21:48:07;;;;;;;6.85;6.25;;;-4.00;99.90;;;;;;5010161;28;20237;-61
2022/12/17 21:50:34;;;;;;;5.83;5.43;;;-4.00;99.90;;;;;;5011950;28;20221;-61
2022/12/17 21:53:01;;;;;;;7.10;6.60;;;-3.90;99.90;;;;;;5021557;28;20225;-62
2022/12/17 21:55:28;;;;;;;7.17;6.67;;;-3.90;99.90;;;;;;5016492;28;20225;-62
2022/12/17 21:57:57;;;;;;;6.70;6.20;;;-4.10;99.90;;;;;;5013110;28;20218;-62
2022/12/17 22:00:25;;;;;;;6.67;6.17;;;-4.10;99.90;;;;;;5009330;28;20201;-62
2022/12/17 22:02:52;;;;;;;7.53;6.93;;;-4.10;99.90;;;;;;5009838;28;20209;-62
2022/12/17 22:05:19;;;;;;;6.50;6.03;;;-4.20;99.90;;;;;;5012605;28;20219;-60
2022/12/17 22:07:46;;;;;;;7.03;6.43;;;-4.10;99.90;;;;;;5016953;28;20316;-62
2022/12/17 22:10:14;;;;;;;6.78;6.28;;;-4.10;99.90;;;;;;5014818;28;20200;-61
2022/12/17 22:15:26;;;;;;;5.63;5.23;;;-3.80;99.90;;;;;;5010144;28;20200;-62
2022/12/17 22:17:54;;;;;;;6.70;6.20;;;-3.70;99.90;;;;;;5010585;28;20320;-62
2022/12/17 22:20:21;;;;;;;5.75;5.35;;;-3.60;99.90;;;;;;5015515;28;20197;-62
2022/12/17 22:22:48;;;;;;;6.68;6.18;;;-3.70;99.90;;;;;;5012472;28;20228;-62
2022/12/17 22:25:16;;;;;;;5.30;5.00;;;-3.60;99.90;;;;;;5016801;28;20197;-60
2022/12/17 22:27:43;;;;;;;6.43;6.03;;;-3.50;99.90;;;;;;5016120;28;20311;-62
2022/12/17 22:33:03;;;;;;;6.40;5.97;;;-3.80;99.90;;;;;;5013485;28;20203;-63
2022/12/17 22:35:34;;;;;;;6.20;5.80;;;-3.90;99.90;;;;;;5012621;28;20905;-63
2022/12/17 22:38:02;;;;;;;6.30;5.80;;;-4.00;99.90;;;;;;5012300;28;20221;-62
2022/12/17 22:40:29;;;;;;;6.38;5.88;;;-4.00;99.90;;;;;;5011844;28;20291;-61
2022/12/17 22:45:40;;;;;;;6.28;5.78;;;-4.00;99.90;;;;;;5010716;28;20302;-62
2022/12/17 22:48:11;;;;;;;6.77;6.27;;;-4.00;99.90;;;;;;5015788;28;20650;-61
2022/12/17 22:50:38;;;;;;;6.93;6.43;;;-4.00;99.90;;;;;;5017489;28;20266;-61
2022/12/17 22:53:06;;;;;;;7.07;6.47;;;-4.10;99.90;;;;;;5014440;28;20209;-61
2022/12/17 22:55:33;;;;;;;6.82;6.30;;;-4.00;99.90;;;;;;5015540;28;20205;-59
2022/12/17 22:58:00;;;;;;;6.10;5.70;;;-4.10;99.90;;;;;;5014946;28;20224;-61
2022/12/17 23:00:32;;;;;;;6.57;6.07;;;-3.90;99.90;;;;;;5010728;28;20640;-60
2022/12/17 23:02:59;;;;;;;6.85;6.35;;;-3.90;99.90;;;;;;5009046;28;20664;-62
2022/12/17 23:05:28;;;;;;;6.28;5.63;;;-4.00;99.90;;;;;;5014096;28;20211;-60
2022/12/17 23:07:56;;;;;;;6.70;6.28;;;-4.10;99.90;;;;;;5014933;28;20271;-60
2022/12/17 23:10:23;;;;;;;6.07;5.68;;;-4.00;99.90;;;;;;5012052;28;20206;-59
2022/12/17 23:12:51;;;;;;;6.80;6.40;;;-3.90;99.90;;;;;;5013977;28;20202;-59
2022/12/17 23:15:21;;;;;;;6.60;6.07;;;-4.00;99.90;;;;;;5014754;28;20224;-61
2022/12/17 23:17:48;;;;;;;6.70;6.20;;;-4.10;99.90;;;;;;5012189;28;20228;-62
2022/12/17 23:20:15;;;;;;;6.82;6.22;;;-4.20;99.90;;;;;;5013943;28;20201;-61
2022/12/17 23:22:44;;;;;;;6.57;6.10;;;-4.30;99.90;;;;;;5011455;28;20205;-61
2022/12/17 23:25:11;;;;;;;7.17;6.47;;;-4.30;99.90;;;;;;5014505;28;20201;-60
2022/12/17 23:27:40;;;;;;;6.20;5.80;;;-4.40;99.90;;;;;;5014318;28;20215;-61
2022/12/17 23:30:08;;;;;;;6.00;5.60;;;-4.40;99.90;;;;;;5009782;28;20288;-59
2022/12/17 23:32:35;;;;;;;6.27;5.77;;;-4.30;99.90;;;;;;5013720;28;20197;-59
2022/12/17 23:35:02;;;;;;;6.28;5.88;;;-4.10;99.90;;;;;;5013270;28;20201;-60
2022/12/17 23:37:29;;;;;;;7.30;6.70;;;-4.00;99.90;;;;;;5014454;28;20209;-60
2022/12/17 23:39:57;;;;;;;6.77;6.17;;;-4.00;99.90;;;;;;5014581;28;20201;-59
2022/12/17 23:42:24;;;;;;;7.07;6.47;;;-4.00;99.90;;;;;;5003521;28;20228;-59
2022/12/17 23:44:51;;;;;;;7.50;6.90;;;-4.10;99.90;;;;;;5004475;28;20209;-62
2022/12/17 23:47:17;;;;;;;6.20;5.80;;;-4.10;99.90;;;;;;5000302;28;20285;-60
2022/12/17 23:49:44;;;;;;;6.85;6.28;;;-4.20;99.90;;;;;;5010797;28;20229;-60
2022/12/17 23:52:11;;;;;;;6.53;6.03;;;-4.30;99.90;;;;;;5002833;28;20316;-60
2022/12/17 23:54:38;;;;;;;13.57;6.60;;;-4.40;99.90;;;;;;5005441;28;20288;-62
2022/12/17 23:57:06;;;;;;;6.67;5.93;;;-4.40;99.90;;;;;;5016897;28;20219;-61
2022/12/17 23:59:33;;;;;;;7.32;6.72;;;-4.30;99.90;;;;;;5015934;28;20221;-61
